createdAt,value
2022-08-26T00:00:21.912Z,99.80
2022-08-26T00:02:50.649Z,99.90
2022-08-26T00:05:20.441Z,99.90
2022-08-26T00:07:50.001Z,99.90
2022-08-26T00:10:20.073Z,99.90
2022-08-26T00:12:51.485Z,99.90
2022-08-26T00:15:22.153Z,99.90
2022-08-26T00:17:51.845Z,99.90
2022-08-26T00:20:22.152Z,99.90
2022-08-26T00:22:50.746Z,99.90
2022-08-26T00:25:19.663Z,99.90
2022-08-26T00:27:48.673Z,99.90
2022-08-26T00:30:18.363Z,99.90
2022-08-26T00:32:53.213Z,99.90
2022-08-26T00:35:22.322Z,99.90
2022-08-26T00:37:51.906Z,99.90
2022-08-26T00:40:22.189Z,99.90
2022-08-26T00:43:09.695Z,99.90
2022-08-26T00:45:41.249Z,99.90
2022-08-26T00:48:13.614Z,99.90
2022-08-26T00:50:43.971Z,99.90
2022-08-26T00:53:24.242Z,99.90
2022-08-26T00:55:58.849Z,99.90
2022-08-26T00:58:48.150Z,99.90
2022-08-26T01:01:18.685Z,99.90
2022-08-26T01:04:11.826Z,99.90
2022-08-26T01:06:41.133Z,99.90
2022-08-26T01:09:13.263Z,99.90
2022-08-26T01:11:42.185Z,99.90
2022-08-26T01:14:12.694Z,99.90
2022-08-26T01:16:42.323Z,99.90
2022-08-26T01:19:19.689Z,99.90
2022-08-26T01:21:49.979Z,99.90
2022-08-26T01:24:20.272Z,99.90
2022-08-26T01:26:49.934Z,99.90
2022-08-26T01:29:20.185Z,99.90
2022-08-26T01:31:51.059Z,99.90
2022-08-26T01:34:23.348Z,99.90
2022-08-26T01:36:56.025Z,99.90
2022-08-26T01:39:45.160Z,99.90
2022-08-26T01:42:15.523Z,99.90
2022-08-26T01:44:46.429Z,99.90
2022-08-26T01:47:17.945Z,99.90
2022-08-26T01:49:47.064Z,99.90
2022-08-26T01:52:18.199Z,99.90
2022-08-26T01:54:52.182Z,99.90
2022-08-26T01:57:23.196Z,99.90
2022-08-26T01:59:53.364Z,99.90
2022-08-26T02:02:22.446Z,99.90
2022-08-26T02:04:55.557Z,99.90
2022-08-26T02:07:24.952Z,99.90
2022-08-26T02:09:57.594Z,99.90
2022-08-26T02:12:27.369Z,99.90
2022-08-26T02:14:58.495Z,99.90
2022-08-26T02:17:30.765Z,99.90
2022-08-26T02:19:59.429Z,99.90
2022-08-26T02:22:28.008Z,99.90
2022-08-26T02:24:59.588Z,99.90
2022-08-26T02:27:32.198Z,99.90
2022-08-26T02:30:03.102Z,99.90
2022-08-26T02:32:51.940Z,99.90
2022-08-26T02:35:21.849Z,99.90
2022-08-26T02:37:50.727Z,99.90
2022-08-26T02:40:28.442Z,99.90
2022-08-26T02:42:57.273Z,99.90
2022-08-26T02:45:26.498Z,99.90
2022-08-26T02:47:56.607Z,99.90
2022-08-26T02:50:25.787Z,99.90
2022-08-26T02:52:54.497Z,99.90
2022-08-26T02:55:25.063Z,99.90
2022-08-26T02:57:53.721Z,99.90
2022-08-26T03:00:22.430Z,99.90
2022-08-26T03:02:52.628Z,99.90
2022-08-26T03:05:24.071Z,99.90
2022-08-26T03:07:53.068Z,99.90
2022-08-26T03:10:22.941Z,99.90
2022-08-26T03:12:53.071Z,99.90
2022-08-26T03:15:22.198Z,99.90
2022-08-26T03:17:50.924Z,99.90
2022-08-26T03:20:19.981Z,99.90
2022-08-26T03:22:49.913Z,99.90
2022-08-26T03:25:19.832Z,99.90
2022-08-26T03:27:48.475Z,99.90
2022-08-26T03:30:36.517Z,99.90
2022-08-26T03:33:05.412Z,99.90
2022-08-26T03:35:34.462Z,99.90
2022-08-26T03:38:03.543Z,99.90
2022-08-26T03:40:33.954Z,99.90
2022-08-26T03:43:02.952Z,99.90
2022-08-26T03:45:33.243Z,99.90
2022-08-26T03:48:02.134Z,99.90
2022-08-26T03:50:31.246Z,99.90
2022-08-26T03:53:03.661Z,99.90
2022-08-26T03:55:33.378Z,99.90
2022-08-26T03:58:02.331Z,99.90
2022-08-26T04:00:32.692Z,99.90
2022-08-26T04:03:03.429Z,99.90
2022-08-26T04:05:32.111Z,99.90
2022-08-26T04:08:00.710Z,99.90
2022-08-26T04:10:29.629Z,99.90
2022-08-26T04:12:58.820Z,99.90
2022-08-26T04:15:28.446Z,99.90
2022-08-26T04:17:58.585Z,99.90
2022-08-26T04:20:45.631Z,99.90
2022-08-26T04:23:14.341Z,99.90
2022-08-26T04:25:45.961Z,99.90
2022-08-26T04:28:15.001Z,99.90
2022-08-26T04:30:43.608Z,99.90
2022-08-26T04:33:14.031Z,99.90
2022-08-26T04:35:44.299Z,99.90
2022-08-26T04:38:13.457Z,99.90
2022-08-26T04:40:46.748Z,99.90
2022-08-26T04:43:31.939Z,99.90
2022-08-26T04:46:02.289Z,99.90
2022-08-26T04:48:51.901Z,99.90
2022-08-26T04:51:28.309Z,99.90
2022-08-26T04:54:16.452Z,99.90
2022-08-26T04:56:46.698Z,99.90
2022-08-26T04:59:18.221Z,99.90
2022-08-26T05:01:47.131Z,99.90
2022-08-26T05:04:19.030Z,99.90
2022-08-26T05:06:47.999Z,99.90
2022-08-26T05:09:18.688Z,99.90
2022-08-26T05:11:48.484Z,99.90
2022-08-26T05:14:21.040Z,99.90
2022-08-26T05:16:51.256Z,99.90
2022-08-26T05:19:21.259Z,99.90
2022-08-26T05:21:49.991Z,99.90
2022-08-26T05:24:18.970Z,99.90
2022-08-26T05:26:48.315Z,99.90
2022-08-26T05:29:16.958Z,99.90
2022-08-26T05:31:45.659Z,99.90
2022-08-26T05:34:14.353Z,99.90
2022-08-26T05:37:02.802Z,99.90
2022-08-26T05:39:33.421Z,99.90
2022-08-26T05:42:04.289Z,99.90
2022-08-26T05:44:55.570Z,99.90
2022-08-26T05:47:23.630Z,99.90
2022-08-26T05:49:52.334Z,99.90
2022-08-26T05:52:24.588Z,99.90
2022-08-26T05:54:55.066Z,99.90
2022-08-26T05:57:23.966Z,99.90
2022-08-26T05:59:53.226Z,99.90
2022-08-26T06:02:22.144Z,99.90
2022-08-26T06:05:09.765Z,99.90
2022-08-26T06:07:57.358Z,99.90
2022-08-26T06:10:32.553Z,99.90
2022-08-26T06:13:09.283Z,99.90
2022-08-26T06:15:42.242Z,99.90
2022-08-26T06:18:11.262Z,99.90
2022-08-26T06:20:43.945Z,99.90
2022-08-26T06:23:45.743Z,99.90
2022-08-26T06:26:15.016Z,99.90
2022-08-26T06:28:45.482Z,99.90
2022-08-26T06:31:14.674Z,99.90
2022-08-26T06:33:43.710Z,99.90
2022-08-26T06:36:17.217Z,99.90
2022-08-26T06:38:49.497Z,99.80
2022-08-26T06:41:21.308Z,99.70
2022-08-26T06:43:50.250Z,99.60
2022-08-26T06:46:19.553Z,99.50
2022-08-26T06:48:49.020Z,99.20
2022-08-26T06:51:18.610Z,99.00
2022-08-26T06:53:49.380Z,98.80
2022-08-26T06:56:19.300Z,98.50
2022-08-26T06:58:48.135Z,98.40
2022-08-26T07:01:18.384Z,98.20
2022-08-26T07:03:49.011Z,98.10
2022-08-26T07:06:19.504Z,98.00
2022-08-26T07:08:49.911Z,98.00
2022-08-26T07:11:19.653Z,98.00
2022-08-26T07:13:48.899Z,97.90
2022-08-26T07:16:19.539Z,97.90
2022-08-26T07:19:17.998Z,97.90
2022-08-26T07:22:04.177Z,97.80
2022-08-26T07:24:35.437Z,97.90
2022-08-26T07:27:05.507Z,98.00
2022-08-26T07:29:52.810Z,98.00
2022-08-26T07:32:24.905Z,97.80
2022-08-26T07:34:54.316Z,97.50
2022-08-26T07:37:23.459Z,97.40
2022-08-26T07:39:53.911Z,97.20
2022-08-26T07:42:22.678Z,97.10
2022-08-26T07:44:52.673Z,97.10
2022-08-26T07:47:25.827Z,97.00
2022-08-26T07:49:55.962Z,96.70
2022-08-26T07:52:27.046Z,96.30
2022-08-26T07:54:58.442Z,95.80
2022-08-26T07:57:27.203Z,95.40
2022-08-26T07:59:55.850Z,95.20
2022-08-26T08:02:26.484Z,95.00
2022-08-26T08:04:55.427Z,94.80
2022-08-26T08:07:38.661Z,94.50
2022-08-26T08:10:15.636Z,93.80
2022-08-26T08:12:44.472Z,93.40
2022-08-26T08:15:14.166Z,92.90
2022-08-26T08:17:44.600Z,92.80
2022-08-26T08:20:13.811Z,92.70
2022-08-26T08:22:43.647Z,92.40
2022-08-26T08:25:13.562Z,92.30
2022-08-26T08:27:45.288Z,92.20
2022-08-26T08:30:14.466Z,91.60
2022-08-26T08:32:43.799Z,91.60
2022-08-26T08:35:13.652Z,91.50
2022-08-26T08:37:43.799Z,91.40
2022-08-26T08:40:13.945Z,91.40
2022-08-26T08:42:47.249Z,91.30
2022-08-26T08:45:17.322Z,91.20
2022-08-26T08:47:50.505Z,91.10
2022-08-26T08:50:25.633Z,91.00
2022-08-26T08:52:57.872Z,90.70
2022-08-26T08:55:30.735Z,90.60
2022-08-26T08:58:04.349Z,90.40
2022-08-26T09:00:39.530Z,90.30
2022-08-26T09:03:12.218Z,90.10
2022-08-26T09:05:48.642Z,90.00
2022-08-26T09:08:19.928Z,89.60
2022-08-26T09:10:51.102Z,89.70
2022-08-26T09:13:25.135Z,90.00
2022-08-26T09:15:58.722Z,89.60
2022-08-26T09:18:33.663Z,88.50
2022-08-26T09:21:03.946Z,87.30
2022-08-26T09:23:35.787Z,86.00
2022-08-26T09:26:14.740Z,85.10
2022-08-26T09:28:47.077Z,84.70
2022-08-26T09:31:21.086Z,84.30
2022-08-26T09:34:00.366Z,84.30
2022-08-26T09:36:39.216Z,83.80
2022-08-26T09:39:25.750Z,83.10
2022-08-26T09:42:06.811Z,81.40
2022-08-26T09:44:52.538Z,80.90
2022-08-26T09:47:23.142Z,80.80
2022-08-26T09:49:58.439Z,80.50
2022-08-26T09:52:28.051Z,79.40
2022-08-26T09:55:01.874Z,78.70
2022-08-26T09:57:33.627Z,78.40
2022-08-26T10:00:24.263Z,78.30
2022-08-26T10:02:57.393Z,77.80
2022-08-26T10:05:42.418Z,77.50
2022-08-26T10:08:21.513Z,76.90
2022-08-26T10:10:53.107Z,77.30
2022-08-26T10:13:25.098Z,76.30
2022-08-26T10:15:59.810Z,76.50
2022-08-26T10:18:34.278Z,76.70
2022-08-26T10:21:07.248Z,77.10
2022-08-26T10:26:15.186Z,77.30
2022-08-26T10:29:07.293Z,77.80
2022-08-26T10:31:40.647Z,78.40
2022-08-26T10:34:10.042Z,78.80
2022-08-26T10:37:15.753Z,78.90
2022-08-26T10:40:01.377Z,78.90
2022-08-26T10:42:35.533Z,78.80
2022-08-26T10:45:27.331Z,79.00
2022-08-26T10:48:02.053Z,78.90
2022-08-26T10:50:33.473Z,78.60
2022-08-26T10:53:03.516Z,78.30
2022-08-26T10:55:37.714Z,77.90
2022-08-26T10:58:27.569Z,77.70
2022-08-26T11:01:17.346Z,77.10
2022-08-26T11:03:58.156Z,76.80
2022-08-26T11:06:46.415Z,76.60
2022-08-26T11:09:36.260Z,76.50
2022-08-26T11:12:10.257Z,76.60
2022-08-26T11:14:53.393Z,76.30
2022-08-26T11:17:42.358Z,75.80
2022-08-26T11:20:32.413Z,75.60
2022-08-26T11:23:16.701Z,75.50
2022-08-26T11:26:00.407Z,75.40
2022-08-26T11:28:33.809Z,75.00
2022-08-26T11:31:02.853Z,74.70
2022-08-26T11:33:59.723Z,74.80
2022-08-26T11:36:38.845Z,75.30
2022-08-26T11:39:28.987Z,75.30
2022-08-26T11:42:00.203Z,74.60
2022-08-26T11:44:29.615Z,75.10
2022-08-26T11:46:59.686Z,75.00
2022-08-26T11:49:29.058Z,75.00
2022-08-26T11:52:11.479Z,75.20
2022-08-26T11:54:40.762Z,75.40
2022-08-26T11:57:14.359Z,75.40
2022-08-26T11:59:43.718Z,75.40
2022-08-26T12:02:16.339Z,75.70
2022-08-26T12:04:49.055Z,75.60
2022-08-26T12:07:24.162Z,74.90
2022-08-26T12:09:56.428Z,74.30
2022-08-26T12:12:26.978Z,73.50
2022-08-26T12:15:14.689Z,72.50
2022-08-26T12:17:44.809Z,72.10
2022-08-26T12:20:21.397Z,72.30
2022-08-26T12:22:53.363Z,72.40
2022-08-26T12:25:25.331Z,72.20
2022-08-26T12:28:00.132Z,72.00
2022-08-26T12:30:31.125Z,71.50
2022-08-26T12:33:22.205Z,71.60
2022-08-26T12:35:56.620Z,72.10
2022-08-26T12:38:27.756Z,72.50
2022-08-26T12:40:57.309Z,73.10
2022-08-26T12:43:39.705Z,73.60
2022-08-26T12:46:08.981Z,73.60
2022-08-26T12:48:39.179Z,73.50
2022-08-26T12:51:08.702Z,73.10
2022-08-26T12:53:43.206Z,73.40
2022-08-26T12:56:26.678Z,73.70
2022-08-26T12:59:02.949Z,73.80
2022-08-26T13:01:38.192Z,73.90
2022-08-26T13:04:08.005Z,73.70
2022-08-26T13:06:36.650Z,73.60
2022-08-26T13:09:26.688Z,73.60
2022-08-26T13:12:29.385Z,73.10
2022-08-26T13:14:58.991Z,73.10
2022-08-26T13:17:28.198Z,73.50
2022-08-26T13:20:03.279Z,73.90
2022-08-26T13:22:32.581Z,74.20
2022-08-26T13:25:02.693Z,74.40
2022-08-26T13:27:31.426Z,74.60
2022-08-26T13:30:00.485Z,75.00
2022-08-26T13:32:29.232Z,75.50
2022-08-26T13:34:58.719Z,76.00
2022-08-26T13:37:35.301Z,76.40
2022-08-26T13:40:07.778Z,76.80
2022-08-26T13:42:36.541Z,77.50
2022-08-26T13:45:05.399Z,78.00
2022-08-26T13:47:34.141Z,78.40
2022-08-26T13:50:02.717Z,78.90
2022-08-26T13:52:34.763Z,79.40
2022-08-26T13:55:04.096Z,79.70
2022-08-26T13:57:34.118Z,79.90
2022-08-26T14:00:03.656Z,80.20
2022-08-26T14:02:38.000Z,80.80
2022-08-26T14:05:07.144Z,81.40
2022-08-26T14:07:35.806Z,81.90
2022-08-26T14:10:05.022Z,82.10
2022-08-26T14:12:35.396Z,82.50
2022-08-26T14:15:04.015Z,82.60
2022-08-26T14:17:33.010Z,82.90
2022-08-26T14:20:01.904Z,83.20
2022-08-26T14:22:34.219Z,83.40
2022-08-26T14:25:04.292Z,83.50
2022-08-26T14:27:36.031Z,83.80
2022-08-26T14:30:05.906Z,83.90
2022-08-26T14:32:34.566Z,83.90
2022-08-26T14:35:03.545Z,83.80
2022-08-26T14:37:32.094Z,83.30
2022-08-26T14:40:00.955Z,82.90
2022-08-26T14:42:31.689Z,82.60
2022-08-26T14:45:02.866Z,82.20
2022-08-26T14:47:31.729Z,81.90
2022-08-26T14:50:02.059Z,81.60
2022-08-26T14:52:51.355Z,81.30
2022-08-26T14:55:19.249Z,81.00
2022-08-26T14:57:47.748Z,80.90
2022-08-26T15:00:18.865Z,80.90
2022-08-26T15:02:47.645Z,81.00
2022-08-26T15:05:16.534Z,80.90
2022-08-26T15:07:45.237Z,80.70
2022-08-26T15:10:15.059Z,80.30
2022-08-26T15:12:44.184Z,80.20
2022-08-26T15:15:13.595Z,80.00
2022-08-26T15:17:44.847Z,79.70
2022-08-26T15:20:13.849Z,79.00
2022-08-26T15:22:43.391Z,79.00
2022-08-26T15:25:13.020Z,78.40
2022-08-26T15:27:47.326Z,78.20
2022-08-26T15:30:16.911Z,78.10
2022-08-26T15:32:47.283Z,78.20
2022-08-26T15:35:16.120Z,78.30
2022-08-26T15:37:44.798Z,78.50
2022-08-26T15:40:14.024Z,78.80
2022-08-26T15:42:42.807Z,79.00
2022-08-26T15:45:13.603Z,79.50
2022-08-26T15:48:01.201Z,79.90
2022-08-26T15:50:30.784Z,80.20
2022-08-26T15:52:59.901Z,80.70
2022-08-26T15:55:28.657Z,80.90
2022-08-26T15:57:57.168Z,81.00
2022-08-26T16:00:26.718Z,81.10
2022-08-26T16:02:56.776Z,80.90
2022-08-26T16:05:25.497Z,81.20
2022-08-26T16:07:54.199Z,81.40
2022-08-26T16:10:22.891Z,81.50
2022-08-26T16:12:51.527Z,81.70
2022-08-26T16:15:22.067Z,82.00
2022-08-26T16:17:50.826Z,82.30
2022-08-26T16:20:20.796Z,82.50
2022-08-26T16:22:49.498Z,82.80
2022-08-26T16:25:18.110Z,83.00
2022-08-26T16:27:46.807Z,83.20
2022-08-26T16:30:17.002Z,83.30
2022-08-26T16:32:45.654Z,83.50
2022-08-26T16:35:14.397Z,83.60
2022-08-26T16:37:44.541Z,83.70
2022-08-26T16:40:13.599Z,83.90
2022-08-26T16:42:42.187Z,84.10
2022-08-26T16:45:11.194Z,84.10
2022-08-26T16:47:39.941Z,84.30
2022-08-26T16:50:09.723Z,84.60
2022-08-26T16:52:38.619Z,84.70
2022-08-26T16:55:09.777Z,84.90
2022-08-26T16:57:38.605Z,85.20
2022-08-26T17:00:09.325Z,85.50
2022-08-26T17:02:38.125Z,85.70
2022-08-26T17:05:07.075Z,86.00
2022-08-26T17:07:36.126Z,86.20
2022-08-26T17:10:06.237Z,86.50
2022-08-26T17:12:36.473Z,86.60
2022-08-26T17:15:05.757Z,86.80
2022-08-26T17:17:34.507Z,87.00
2022-08-26T17:20:06.443Z,87.10
2022-08-26T17:22:35.144Z,87.30
2022-08-26T17:25:03.717Z,87.40
2022-08-26T17:27:32.406Z,87.50
2022-08-26T17:30:02.397Z,87.70
2022-08-26T17:32:31.148Z,87.90
2022-08-26T17:34:59.630Z,87.90
2022-08-26T17:37:28.408Z,88.00
2022-08-26T17:39:57.110Z,88.10
2022-08-26T17:42:29.098Z,88.20
2022-08-26T17:47:55.663Z,87.90
2022-08-26T17:50:24.978Z,87.90
2022-08-26T17:52:53.501Z,88.10
2022-08-26T17:55:22.258Z,88.30
2022-08-26T17:57:53.432Z,88.50
2022-08-26T18:00:26.605Z,88.70
2022-08-26T18:02:55.406Z,88.70
2022-08-26T18:05:24.980Z,89.50
2022-08-26T18:07:53.572Z,88.80
2022-08-26T18:10:22.217Z,89.00
2022-08-26T18:12:50.812Z,89.10
2022-08-26T18:15:19.617Z,89.10
2022-08-26T18:17:49.573Z,89.40
2022-08-26T18:20:19.097Z,89.50
2022-08-26T18:22:48.336Z,89.60
2022-08-26T18:25:17.503Z,89.90
2022-08-26T18:27:46.392Z,90.00
2022-08-26T18:30:16.793Z,90.10
2022-08-26T18:33:05.854Z,90.20
2022-08-26T18:35:34.540Z,90.20
2022-08-26T18:38:10.515Z,90.20
2022-08-26T18:40:40.335Z,90.20
2022-08-26T18:43:08.886Z,90.30
2022-08-26T18:45:37.543Z,90.40
2022-08-26T18:48:07.558Z,90.50
2022-08-26T18:50:40.046Z,90.50
2022-08-26T18:53:08.889Z,90.60
2022-08-26T18:55:37.439Z,90.70
2022-08-26T18:58:06.065Z,90.60
2022-08-26T19:00:34.576Z,90.70
2022-08-26T19:03:03.144Z,90.70
2022-08-26T19:05:33.710Z,90.70
2022-08-26T19:08:02.393Z,90.80
2022-08-26T19:10:31.242Z,90.90
2022-08-26T19:13:09.830Z,91.00
2022-08-26T19:15:38.940Z,91.20
2022-08-26T19:18:07.970Z,91.20
2022-08-26T19:20:40.660Z,91.20
2022-08-26T19:23:30.482Z,91.30
2022-08-26T19:26:00.578Z,91.40
2022-08-26T19:28:29.220Z,91.40
2022-08-26T19:30:57.882Z,91.40
2022-08-26T19:33:26.945Z,91.80
2022-08-26T19:35:57.231Z,91.60
2022-08-26T19:38:25.935Z,91.70
2022-08-26T19:40:56.457Z,91.90
2022-08-26T19:43:24.966Z,91.90
2022-08-26T19:45:53.733Z,92.10
2022-08-26T19:48:22.355Z,92.20
2022-08-26T19:50:50.940Z,92.30
2022-08-26T19:53:20.967Z,92.40
2022-08-26T19:55:49.709Z,92.40
2022-08-26T19:58:18.287Z,92.50
2022-08-26T20:00:47.141Z,92.60
2022-08-26T20:03:16.172Z,92.60
2022-08-26T20:05:45.118Z,92.70
2022-08-26T20:08:22.555Z,92.70
2022-08-26T20:10:53.229Z,92.80
2022-08-26T20:13:22.213Z,92.90
2022-08-26T20:15:50.649Z,93.00
2022-08-26T20:18:36.699Z,93.10
2022-08-26T20:21:22.435Z,93.20
2022-08-26T20:23:51.625Z,93.30
2022-08-26T20:26:21.663Z,93.30
2022-08-26T20:28:50.949Z,93.40
2022-08-26T20:31:19.897Z,93.50
2022-08-26T20:33:48.940Z,93.60
2022-08-26T20:36:20.584Z,93.60
2022-08-26T20:39:07.699Z,93.80
2022-08-26T20:41:37.907Z,93.90
2022-08-26T20:44:06.706Z,93.90
2022-08-26T20:46:36.305Z,94.00
2022-08-26T20:49:06.016Z,94.10
2022-08-26T20:51:37.485Z,94.20
2022-08-26T20:54:07.199Z,94.30
2022-08-26T20:56:36.474Z,94.50
2022-08-26T20:59:07.463Z,94.60
2022-08-26T21:01:36.935Z,94.70
2022-08-26T21:04:29.527Z,94.80
2022-08-26T21:06:58.572Z,95.00
2022-08-26T21:09:27.518Z,95.10
2022-08-26T21:11:57.681Z,95.20
2022-08-26T21:14:27.583Z,95.30
2022-08-26T21:16:56.620Z,95.40
2022-08-26T21:19:25.359Z,95.50
2022-08-26T21:21:54.042Z,95.60
2022-08-26T21:24:22.701Z,95.70
2022-08-26T21:26:51.375Z,95.80
2022-08-26T21:29:22.145Z,95.90
2022-08-26T21:31:52.246Z,96.10
2022-08-26T21:34:21.515Z,96.20
2022-08-26T21:36:50.437Z,96.30
2022-08-26T21:39:19.248Z,96.40
2022-08-26T21:41:47.835Z,96.60
2022-08-26T21:44:17.093Z,96.70
2022-08-26T21:46:46.788Z,96.80
2022-08-26T21:49:17.571Z,97.00
2022-08-26T21:51:47.108Z,97.10
2022-08-26T21:54:16.799Z,97.20
2022-08-26T21:56:46.870Z,97.30
2022-08-26T21:59:16.204Z,97.50
2022-08-26T22:01:44.871Z,97.50
2022-08-26T22:04:13.459Z,97.60
2022-08-26T22:06:44.513Z,97.70
2022-08-26T22:09:13.619Z,97.80
2022-08-26T22:11:42.294Z,97.90
2022-08-26T22:14:10.913Z,98.10
2022-08-26T22:16:39.721Z,98.20
2022-08-26T22:19:08.386Z,98.30
2022-08-26T22:21:45.527Z,98.50
2022-08-26T22:24:15.337Z,98.60
2022-08-26T22:26:44.047Z,98.80
2022-08-26T22:29:12.811Z,99.00
2022-08-26T22:31:41.841Z,99.10
2022-08-26T22:34:11.695Z,99.20
2022-08-26T22:36:44.778Z,99.30
2022-08-26T22:39:14.225Z,99.40
2022-08-26T22:41:43.259Z,99.50
2022-08-26T22:44:12.161Z,99.60
2022-08-26T22:46:41.414Z,99.70
2022-08-26T22:49:10.384Z,99.80
2022-08-26T22:51:38.980Z,99.90
2022-08-26T22:54:09.129Z,99.90
2022-08-26T22:56:38.228Z,99.90
2022-08-26T22:59:06.918Z,99.90
2022-08-26T23:01:36.613Z,99.90
2022-08-26T23:04:06.848Z,99.90
2022-08-26T23:06:36.608Z,99.90
2022-08-26T23:09:05.654Z,99.90
2022-08-26T23:11:35.739Z,99.90
2022-08-26T23:14:06.254Z,99.90
2022-08-26T23:16:37.987Z,99.90
2022-08-26T23:19:08.608Z,99.90
2022-08-26T23:21:37.141Z,99.90
2022-08-26T23:24:06.088Z,99.90
2022-08-26T23:26:36.674Z,99.90
2022-08-26T23:29:06.069Z,99.90
2022-08-26T23:31:34.959Z,99.90
2022-08-26T23:34:26.380Z,99.90
2022-08-26T23:36:58.409Z,99.90
2022-08-26T23:39:27.266Z,99.90
2022-08-26T23:41:57.663Z,99.90
2022-08-26T23:44:26.915Z,99.90
2022-08-26T23:46:55.604Z,99.90
2022-08-26T23:49:24.604Z,99.90
2022-08-26T23:52:10.320Z,99.90
2022-08-26T23:54:39.393Z,99.90
2022-08-26T23:57:09.741Z,99.90
2022-08-26T23:59:38.809Z,99.90
